createdAt,value
2023-04-02T00:03:59.869Z,98795.75
2023-04-02T00:09:13.890Z,98859.91
2023-04-02T00:14:23.022Z,98921.41
2023-04-02T00:19:42.205Z,98812.53
2023-04-02T00:24:44.005Z,98936.06
2023-04-02T00:29:50.751Z,98940.19
2023-04-02T00:34:52.806Z,98925.19
2023-04-02T00:40:15.444Z,98903.53
2023-04-02T00:45:26.016Z,98772.78
2023-04-02T00:50:35.903Z,98981.78
2023-04-02T00:55:41.723Z,98957.69
2023-04-02T01:00:50.308Z,98915.69
2023-04-02T01:06:01.686Z,99009.03
2023-04-02T01:11:09.382Z,99010.28
2023-04-02T01:16:39.489Z,98974.41
2023-04-02T01:21:57.289Z,99001.31
2023-04-02T01:27:05.456Z,98978.69
2023-04-02T01:32:11.548Z,98966.34
2023-04-02T01:37:34.924Z,98975.22
2023-04-02T01:42:39.374Z,98930.47
2023-04-02T01:47:42.950Z,99011.22
2023-04-02T01:52:46.975Z,99027.28
2023-04-02T01:57:52.127Z,98964.50
2023-04-02T02:02:54.264Z,99131.91
2023-04-02T02:07:58.443Z,98886.59
2023-04-02T02:13:01.376Z,99059.13
2023-04-02T02:18:06.620Z,99058.69
2023-04-02T02:23:11.095Z,99040.06
2023-04-02T02:28:12.771Z,98997.44
2023-04-02T02:33:41.894Z,99050.56
2023-04-02T02:39:02.380Z,98847.63
2023-04-02T02:44:16.436Z,99076.28
2023-04-02T02:49:26.169Z,99030.47
2023-04-02T02:54:30.679Z,99029.53
2023-04-02T02:59:32.776Z,99067.63
2023-04-02T03:04:35.915Z,99008.16
2023-04-02T03:09:57.636Z,99081.13
2023-04-02T03:15:20.714Z,99059.00
2023-04-02T03:20:55.708Z,99086.94
2023-04-02T03:26:24.932Z,99043.94
2023-04-02T03:31:33.851Z,98959.06
2023-04-02T03:36:46.687Z,99049.94
2023-04-02T03:41:50.800Z,99065.38
2023-04-02T03:47:01.553Z,99044.63
2023-04-02T03:52:11.931Z,99069.13
2023-04-02T03:57:31.856Z,99018.16
2023-04-02T04:02:38.909Z,99087.66
2023-04-02T04:07:43.647Z,99080.03
2023-04-02T04:12:50.681Z,98923.28
2023-04-02T04:18:35.107Z,99058.63
2023-04-02T04:23:41.162Z,99124.38
2023-04-02T04:29:05.711Z,99105.78
2023-04-02T04:34:23.159Z,99124.31
2023-04-02T04:39:47.385Z,99168.41
2023-04-02T04:44:59.891Z,99063.97
2023-04-02T04:50:05.672Z,99167.63
2023-04-02T04:55:31.161Z,99182.16
2023-04-02T05:00:59.845Z,99184.53
2023-04-02T05:06:09.498Z,99203.44
2023-04-02T05:11:19.747Z,99151.91
2023-04-02T05:16:31.426Z,99192.09
2023-04-02T05:22:16.372Z,99170.25
2023-04-02T05:27:27.534Z,99195.66
2023-04-02T05:32:34.706Z,99166.28
2023-04-02T05:37:39.850Z,99158.69
2023-04-02T05:42:47.469Z,99140.78
2023-04-02T05:47:52.355Z,99186.16
2023-04-02T05:53:06.629Z,99196.81
2023-04-02T05:58:39.182Z,99136.81
2023-04-02T06:03:46.878Z,99233.84
2023-04-02T06:09:00.113Z,99218.19
2023-04-02T06:14:03.605Z,99251.72
2023-04-02T06:19:17.465Z,99279.19
2023-04-02T06:24:25.465Z,99263.47
2023-04-02T06:29:31.809Z,99255.41
2023-04-02T06:34:36.686Z,99310.38
2023-04-02T06:39:38.362Z,99277.56
2023-04-02T06:44:40.540Z,99355.81
2023-04-02T06:50:04.052Z,99377.59
2023-04-02T06:55:20.790Z,99272.53
2023-04-02T07:00:44.416Z,99382.88
2023-04-02T07:05:46.200Z,99373.00
2023-04-02T07:10:47.887Z,99211.28
2023-04-02T07:15:52.524Z,99365.34
2023-04-02T07:20:54.718Z,99354.09
2023-04-02T07:25:57.737Z,99332.88
2023-04-02T07:30:59.596Z,99374.56
2023-04-02T07:36:01.625Z,99373.19
2023-04-02T07:41:07.109Z,99425.56
2023-04-02T07:46:09.855Z,99502.00
2023-04-02T07:51:20.327Z,99462.44
2023-04-02T07:56:23.850Z,99396.81
2023-04-02T08:01:27.353Z,99321.66
2023-04-02T08:06:29.330Z,99383.84
2023-04-02T08:11:31.795Z,99323.91
2023-04-02T08:16:47.665Z,99468.41
2023-04-02T08:21:51.702Z,99442.00
2023-04-02T08:26:53.691Z,99434.47
2023-04-02T08:31:55.293Z,99458.38
2023-04-02T08:36:58.738Z,99461.97
2023-04-02T08:42:18.979Z,99423.63
2023-04-02T08:47:26.014Z,99469.03
2023-04-02T08:52:32.765Z,99444.91
2023-04-02T08:57:47.536Z,99533.22
2023-04-02T09:02:57.652Z,99463.34
2023-04-02T09:08:02.994Z,99430.25
2023-04-02T09:13:16.870Z,99537.56
2023-04-02T09:18:19.627Z,99467.66
2023-04-02T09:23:24.387Z,99553.91
2023-04-02T09:28:27.205Z,99473.00
2023-04-02T09:33:47.088Z,99466.41
2023-04-02T09:39:07.148Z,99519.19
2023-04-02T09:44:23.810Z,99586.91
2023-04-02T09:49:28.710Z,99515.78
2023-04-02T09:54:30.382Z,99501.00
2023-04-02T09:59:32.049Z,99471.47
2023-04-02T10:04:49.719Z,99548.50
2023-04-02T10:10:17.885Z,99541.50
2023-04-02T10:15:26.344Z,99566.50
2023-04-02T10:20:32.112Z,99520.44
2023-04-02T10:25:42.427Z,99527.28
2023-04-02T10:31:00.032Z,99579.78
2023-04-02T10:36:23.242Z,99625.16
2023-04-02T10:41:37.104Z,99556.84
2023-04-02T10:47:00.173Z,99504.84
2023-04-02T10:52:21.271Z,99472.66
2023-04-02T10:57:39.518Z,99536.09
2023-04-02T11:06:44.090Z,99589.94
2023-04-02T11:11:51.379Z,99647.16
2023-04-02T11:16:55.358Z,99507.25
2023-04-02T11:22:16.203Z,99601.66
2023-04-02T11:27:17.706Z,99646.31
2023-04-02T11:32:22.343Z,99560.69
2023-04-02T11:37:36.023Z,99594.16
2023-04-02T11:42:42.788Z,99642.81
2023-04-02T11:48:13.306Z,99663.66
2023-04-02T11:53:15.021Z,99643.97
2023-04-02T11:58:46.111Z,99716.13
2023-04-02T12:04:21.477Z,99629.69
2023-04-02T12:09:27.226Z,99684.00
2023-04-02T12:14:59.526Z,99712.59
2023-04-02T12:20:20.605Z,99680.34
2023-04-02T12:25:40.350Z,99666.53
2023-04-02T12:30:42.126Z,99681.84
2023-04-02T12:35:45.317Z,99685.44
2023-04-02T12:40:57.668Z,99718.59
2023-04-02T12:46:08.168Z,99685.88
2023-04-02T12:51:11.181Z,99649.81
2023-04-02T12:56:19.735Z,99632.44
2023-04-02T13:01:23.924Z,99701.13
2023-04-02T13:06:27.088Z,99671.09
2023-04-02T13:11:40.403Z,99633.94
2023-04-02T13:16:42.241Z,99729.03
2023-04-02T13:21:46.610Z,99683.50
2023-04-02T13:26:49.828Z,99725.69
2023-04-02T13:31:53.544Z,99693.28
2023-04-02T13:36:55.493Z,99717.84
2023-04-02T13:41:58.511Z,99743.03
2023-04-02T13:47:00.719Z,99707.09
2023-04-02T13:52:05.012Z,99766.97
2023-04-02T13:57:07.482Z,99747.75
2023-04-02T14:02:16.094Z,99778.25
2023-04-02T14:07:47.749Z,99800.22
2023-04-02T14:13:08.271Z,99816.00
2023-04-02T14:18:48.153Z,99836.72
2023-04-02T14:23:49.778Z,99756.38
2023-04-02T14:28:51.311Z,99870.84
2023-04-02T14:34:19.251Z,99834.97
2023-04-02T14:39:49.445Z,99897.81
2023-04-02T14:45:02.350Z,99858.28
2023-04-02T14:50:13.553Z,99846.78
2023-04-02T14:55:26.749Z,99805.91
2023-04-02T15:00:41.993Z,99929.19
2023-04-02T15:05:54.688Z,99900.97
2023-04-02T15:11:02.887Z,99929.66
2023-04-02T15:16:10.213Z,99950.47
2023-04-02T15:21:19.175Z,99986.03
2023-04-02T15:26:33.037Z,99982.75
2023-04-02T15:31:35.917Z,99894.47
2023-04-02T15:37:04.132Z,100003.06
2023-04-02T15:42:05.996Z,99853.72
2023-04-02T15:47:28.316Z,100007.72
2023-04-02T15:52:47.876Z,99846.66
2023-04-02T15:58:23.498Z,99997.00
2023-04-02T16:03:33.769Z,99931.03
2023-04-02T16:08:57.204Z,99925.16
2023-04-02T16:14:22.681Z,99940.41
2023-04-02T16:19:40.003Z,100080.22
2023-04-02T16:24:43.054Z,100110.91
2023-04-02T16:30:29.058Z,100081.56
2023-04-02T16:35:51.159Z,100141.31
2023-04-02T16:41:14.591Z,100053.69
2023-04-02T16:46:38.181Z,100154.97
2023-04-02T16:52:01.164Z,100158.88
2023-04-02T16:57:36.057Z,100178.25
2023-04-02T17:03:02.349Z,100062.88
2023-04-02T17:08:37.205Z,100232.03
2023-04-02T17:13:55.070Z,100158.97
2023-04-02T17:18:59.888Z,100205.56
2023-04-02T17:24:14.247Z,100202.84
2023-04-02T17:29:38.161Z,100198.78
2023-04-02T17:34:39.757Z,100248.59
2023-04-02T17:39:59.962Z,100182.63
2023-04-02T17:45:10.508Z,100218.06
2023-04-02T17:50:15.291Z,100237.31
2023-04-02T17:55:40.640Z,100187.72
2023-04-02T18:00:45.610Z,100211.50
2023-04-02T18:05:59.947Z,100247.16
2023-04-02T18:11:16.904Z,100276.56
2023-04-02T18:16:26.059Z,100361.72
2023-04-02T18:21:33.085Z,100342.88
2023-04-02T18:27:11.461Z,100403.66
2023-04-02T18:32:29.198Z,100358.88
2023-04-02T18:38:15.095Z,100374.00
2023-04-02T18:43:37.835Z,100397.53
2023-04-02T18:49:01.160Z,100409.81
2023-04-02T18:54:08.605Z,100458.16
2023-04-02T18:59:19.323Z,100378.25
2023-04-02T19:04:29.099Z,100521.03
2023-04-02T19:09:41.162Z,100445.97
2023-04-02T19:14:42.848Z,100388.50
2023-04-02T19:20:11.011Z,100536.13
2023-04-02T19:25:56.279Z,100537.03
2023-04-02T19:31:36.903Z,100561.78
2023-04-02T19:36:47.351Z,100568.50
2023-04-02T19:42:00.992Z,100599.22
2023-04-02T19:47:02.761Z,100581.09
2023-04-02T19:52:04.727Z,100625.41
2023-04-02T19:57:06.454Z,100564.81
2023-04-02T20:02:10.469Z,100612.13
2023-04-02T20:07:12.075Z,100556.09
2023-04-02T20:12:13.721Z,100628.75
2023-04-02T20:17:15.535Z,100669.28
2023-04-02T20:22:19.127Z,100578.03
2023-04-02T20:27:20.875Z,100664.09
2023-04-02T20:32:22.724Z,100644.31
2023-04-02T20:37:24.602Z,100726.34
2023-04-02T20:42:26.447Z,100752.53
2023-04-02T20:47:29.105Z,100747.19
2023-04-02T20:52:33.213Z,100705.81
2023-04-02T20:57:35.115Z,100641.16
2023-04-02T21:02:36.803Z,100682.03
2023-04-02T21:07:38.514Z,100739.59
2023-04-02T21:12:40.145Z,100694.94
2023-04-02T21:17:41.807Z,100561.41
2023-04-02T21:22:43.628Z,100641.09
2023-04-02T21:27:45.328Z,100643.06
2023-04-02T21:32:47.000Z,100694.06
2023-04-02T21:37:48.664Z,100726.41
2023-04-02T21:42:50.484Z,100736.00
2023-04-02T21:47:52.072Z,100732.44
2023-04-02T21:52:53.845Z,100471.19
2023-04-02T21:57:55.509Z,100763.44
2023-04-02T22:02:57.166Z,100639.34
2023-04-02T22:07:58.766Z,100679.09
2023-04-02T22:13:00.308Z,100585.53
2023-04-02T22:18:02.000Z,100814.84
2023-04-02T22:23:03.647Z,100642.16
2023-04-02T22:28:05.647Z,100803.00
2023-04-02T22:33:07.284Z,100833.78
2023-04-02T22:38:09.232Z,100808.38
2023-04-02T22:43:10.799Z,100807.97
2023-04-02T22:48:12.433Z,100808.75
2023-04-02T22:53:15.250Z,100827.94
2023-04-02T22:58:16.866Z,100789.13
2023-04-02T23:03:18.912Z,100654.13
2023-04-02T23:08:20.790Z,100816.88
2023-04-02T23:13:22.340Z,100814.75
2023-04-02T23:18:25.063Z,100806.22
2023-04-02T23:23:27.346Z,100763.41
2023-04-02T23:28:28.937Z,100815.00
2023-04-02T23:33:30.943Z,100590.59
2023-04-02T23:38:32.522Z,100633.09
2023-04-02T23:43:34.200Z,100726.16
2023-04-02T23:48:35.817Z,100608.00
2023-04-02T23:53:37.576Z,100710.88
2023-04-02T23:58:39.139Z,100787.84
